Latest Weather Observations for Renmark Airport

IDS60801

Issued at 1:05 pm CST Friday 19 September 2014 (issued every 30 minutes, with the page automatically refreshed every 10 minutes)

About weather observations | Map of weather stations | Latest weather observations for SA | Other Formats
Station Details ID: 024048 Name: RENMARK AERO Lat: -34.20 Lon: 140.68 Height: 31.5 m
Data from the previous 72 hours. | See also: Recent months at Renmark Airport
Date/Time
CST
Temp
°C
App
Temp
°C
Dew
Point
Rel
Hum
%
Delta-T
°C
Wind Press
QNH
hPa
Press
MSL
hPa
Rain
since 9 am
mm
Dir
 
Spd
km/h
Gust
km/h
Spd
kts
Gust
kts
19/01:00pm 18.3 14.0 -2.0 25 8.4 NNE 11 24 6 13 1024.3 1024.3 0.0
19/12:30pm 17.7 14.7 -1.5 27 8.0 W 4 11 2 6 1024.6 1024.6 0.0
19/12:00pm 17.7 13.9 -1.0 28 7.9 NE 9 17 5 9 1025.2 1025.2 0.0
19/11:30am 16.9 13.4 -1.2 29 7.5 NE 7 13 4 7 1025.6 1025.6 0.0
19/11:00am 16.7 12.8 -1.4 29 7.5 ENE 9 11 5 6 1026.0 1026.0 0.0
19/10:30am 16.1 12.1 0.3 34 6.7 SE 11 17 6 9 1026.0 1026.0 0.0
19/10:00am 15.9 11.9 2.7 41 6.0 E 13 17 7 9 1026.4 1026.4 0.0
19/09:30am 14.6 11.0 3.1 46 5.1 E 11 17 6 9 1026.5 1026.5 0.0
19/09:00am 12.5 8.6 3.2 53 4.1 E 13 17 7 9 1026.6 1026.6 0.0
19/08:30am 10.9 6.8 2.2 55 3.7 E 13 20 7 11 1026.6 1026.6 0.0
19/08:00am 9.3 5.1 1.9 60 3.1 E 13 17 7 9 1026.5 1026.5 0.0
19/07:30am 7.3 3.5 1.6 67 2.3 ESE 11 13 6 7 1026.3 1026.3 0.0
19/07:00am 3.3 1.5 1.2 86 0.8 CALM 0 0 0 0 1026.2 1026.2 0.0
19/06:30am 1.4 -0.7 -1.0 84 0.8 CALM 0 0 0 0 1025.8 1025.8 0.0
19/06:00am 1.6 -1.3 -1.1 82 1.0 SSE 4 7 2 4 1025.6 1025.6 0.0
19/05:30am 3.1 -0.1 0.5 83 1.0 SE 7 9 4 5 1025.3 1025.3 0.0
19/05:00am 3.2 1.3 0.6 83 1.0 CALM 0 0 0 0 1025.2 1025.2 0.0
19/04:30am 3.3 0.2 0.2 80 1.2 SSE 6 9 3 5 1024.8 1024.8 0.0
19/04:00am 4.8 1.4 1.8 81 1.2 S 9 11 5 6 1024.6 1024.6 0.0
19/03:30am 5.5 1.4 2.3 80 1.3 SSE 13 17 7 9 1024.6 1024.6 0.0
19/03:00am 5.4 3.0 2.1 79 1.3 S 4 7 2 4 1024.7 1024.7 0.0
19/02:30am 6.0 2.7 2.5 78 1.4 SSE 9 11 5 6 1024.6 1024.6 0.0
19/02:00am 6.8 3.2 2.9 76 1.6 SSE 11 15 6 8 1024.7 1024.7 0.0
19/01:30am 7.0 4.3 2.7 74 1.8 S 6 11 3 6 1025.0 1025.0 0.0
19/01:00am 8.3 4.7 3.2 70 2.2 S 11 15 6 8 1025.1 1025.1 0.0
19/12:30am 8.6 4.3 3.2 69 2.3 S 15 17 8 9 1025.2 1025.2 0.0
19/12:00am 9.3 5.0 3.5 67 2.5 S 15 19 8 10 1025.1 1025.1 0.0
 
Date/Time
CST
Temp
°C
App
Temp
°C
Dew
Point
Rel
Hum
%
Delta-T
°C
Wind Press
QNH
hPa
Press
MSL
hPa
Rain
since 9 am
mm
Dir
 
Spd
km/h
Gust
km/h
Spd
kts
Gust
kts
18/11:30pm 7.4 4.6 2.9 73 1.9 SSW 7 11 4 6 1025.3 1025.3 0.0
18/11:00pm 7.7 4.8 2.6 70 2.1 WSW 7 7 4 4 1025.2 1025.2 0.0
18/10:30pm 8.0 5.1 2.7 69 2.2 SW 7 9 4 5 1025.6 1025.6 0.0
18/10:00pm 7.5 4.4 1.1 64 2.6 SW 7 9 4 5 1025.7 1025.7 0.0
18/09:30pm 6.9 3.6 0.4 63 2.5 SW 7 9 4 5 1025.6 1025.6 0.0
18/09:00pm 6.3 2.5 -0.7 61 2.6 WSW 9 9 5 5 1025.6 1025.6 0.0
18/08:30pm 7.0 3.7 -0.2 60 2.8 WSW 7 9 4 5 1025.4 1025.4 0.0
18/08:00pm 8.1 4.8 0.1 57 3.2 WSW 7 7 4 4 1025.3 1025.3 0.0
18/07:30pm 9.5 7.7 0.9 55 3.5 CALM 0 0 0 0 1025.0 1025.0 0.0
18/07:00pm 11.5 8.5 0.9 48 4.4 WSW 6 7 3 4 1024.8 1024.8 0.0
18/06:30pm 13.3 10.4 1.3 44 5.1 S 6 7 3 4 1024.6 1024.6 0.0
18/06:00pm 14.2 10.4 1.5 42 5.5 SSE 11 19 6 10 1024.4 1024.4 0.0
18/05:30pm 14.8 11.3 1.3 40 5.8 WSW 9 13 5 7 1024.3 1024.3 0.0
18/05:00pm 15.0 11.8 0.8 38 6.1 SSW 7 13 4 7 1024.1 1024.1 0.0
18/04:30pm 15.3 12.1 0.7 37 6.2 SSW 7 11 4 6 1023.8 1023.8 0.0
18/04:00pm 15.4 12.1 0.4 36 6.4 SSE 7 13 4 7 1023.9 1023.9 0.0
18/03:30pm 15.3 11.7 0.3 36 6.4 S 9 15 5 8 1024.0 1024.0 0.0
18/03:00pm 15.3 10.2 0.7 37 6.2 SSE 17 20 9 11 1024.1 1024.1 0.0
18/02:30pm 15.6 12.6 0.6 36 6.4 WSW 6 9 3 5 1024.1 1024.1 0.0
18/02:00pm 14.8 10.8 0.6 38 6.1 SSE 11 20 6 11 1024.1 1024.1 0.0
18/01:30pm 15.1 11.2 0.9 38 6.1 S 11 20 6 11 1024.4 1024.4 0.0
18/01:00pm 15.3 11.4 1.4 39 6.1 SSE 11 20 6 11 1024.5 1024.5 0.0
18/12:30pm 14.5 10.7 1.8 42 5.5 SSE 11 19 6 10 1025.0 1025.0 0.0
18/12:00pm 14.1 9.9 1.7 43 5.4 SSE 13 20 7 11 1025.6 1025.6 0.0
18/11:30am 13.7 9.9 1.7 44 5.2 SSW 11 15 6 8 1025.8 1025.8 0.0
18/11:00am 13.4 10.0 1.7 45 5.1 SSW 9 17 5 9 1026.1 1026.1 0.0
18/10:30am 13.2 11.3 2.7 49 4.6 NNW 2 7 1 4 1026.5 1026.5 0.0
18/10:00am 12.5 9.4 3.7 55 3.9 SSE 9 13 5 7 1026.9 1026.9 0.0
18/09:30am 11.9 9.3 4.2 59 3.4 SE 7 9 4 5 1026.8 1026.8 0.0
18/09:00am 11.6 9.3 5.0 64 3.0 SSE 6 9 3 5 1026.7 1026.7 0.0
18/08:30am 10.8 8.9 4.9 67 2.7 S 4 7 2 4 1026.6 1026.6 0.0
18/08:00am 9.7 8.4 3.9 67 2.5 CALM 0 0 0 0 1026.6 1026.6 0.0
18/07:30am 8.6 6.8 3.4 70 2.2 S 2 9 1 5 1026.3 1026.3 0.0
18/07:00am 7.8 5.5 2.9 71 2.1 W 4 7 2 4 1026.2 1026.2 0.0
18/06:30am 7.4 4.7 2.7 72 1.9 W 6 7 3 4 1025.8 1025.8 0.0
18/06:00am 7.1 4.4 2.4 72 1.9 SW 6 9 3 5 1025.6 1025.6 0.0
18/05:30am 7.1 4.7 2.2 71 2.0 W 4 7 2 4 1025.4 1025.4 0.0
18/05:00am 6.8 3.8 1.9 71 2.0 WSW 7 11 4 6 1025.1 1025.1 0.0
18/04:30am 6.4 2.9 1.5 71 2.0 W 9 13 5 7 1025.0 1025.0 0.0
18/04:00am 5.9 2.0 1.2 72 1.9 WSW 11 13 6 7 1024.8 1024.8 0.0
18/03:30am 5.9 2.5 1.6 74 1.7 W 9 13 5 7 1024.6 1024.6 0.0
18/03:00am 4.8 1.3 1.3 78 1.4 W 9 13 5 7 1024.6 1024.6 0.0
18/02:30am 3.4 0.1 0.3 80 1.2 WSW 7 11 4 6 1024.6 1024.6 0.0
18/02:00am 3.0 -1.1 -0.1 80 1.1 SW 11 13 6 7 1024.8 1024.8 0.0
18/01:30am 2.9 -0.9 -0.9 76 1.4 SW 9 9 5 5 1024.8 1024.8 0.0
18/01:00am 4.7 1.4 0.3 73 1.7 WSW 7 9 4 5 1024.5 1024.5 0.0
18/12:30am 5.4 1.8 0.6 71 1.9 W 9 9 5 5 1024.7 1024.7 0.0
18/12:00am 6.6 3.0 0.7 66 2.3 SW 9 13 5 7 1024.8 1024.8 0.0
 
Date/Time
CST
Temp
°C
App
Temp
°C
Dew
Point
Rel
Hum
%
Delta-T
°C
Wind Press
QNH
hPa
Press
MSL
hPa
Rain
since 9 am
mm
Dir
 
Spd
km/h
Gust
km/h
Spd
kts
Gust
kts
17/11:30pm 7.7 4.1 0.9 62 2.7 SW 9 15 5 8 1024.9 1024.9 0.0
17/11:00pm 8.6 4.7 1.1 59 3.1 SSW 11 17 6 9 1024.8 1024.8 0.0
17/10:30pm 9.0 4.7 1.0 57 3.2 SSW 13 17 7 9 1024.6 1024.6 0.0
17/10:00pm 9.6 5.3 1.0 55 3.5 SSW 13 17 7 9 1024.6 1024.6 0.0
17/09:30pm 10.1 5.8 1.2 54 3.7 SSW 13 20 7 11 1024.4 1024.4 0.0
17/09:00pm 10.6 6.0 1.4 53 3.8 SSW 15 22 8 12 1023.9 1023.9 0.0
17/08:30pm 11.3 6.3 1.5 51 4.1 S 17 24 9 13 1023.4 1023.4 0.0
17/08:00pm 12.0 6.1 1.6 49 4.4 S 22 30 12 16 1022.9 1022.9 0.0
17/07:30pm 12.9 7.5 2.2 48 4.6 S 20 30 11 16 1022.5 1022.5 0.0
17/07:00pm 13.8 8.4 2.4 46 5.0 SSW 20 30 11 16 1022.2 1022.2 0.0
17/06:30pm 14.6 8.7 1.5 41 5.7 SSW 22 32 12 17 1021.7 1021.7 0.0
17/06:00pm 15.4 9.4 1.2 38 6.2 SSW 22 30 12 16 1021.4 1021.4 0.0
17/05:30pm 16.4 10.9 1.7 37 6.5 SSW 20 32 11 17 1021.0 1021.0 0.0
17/05:00pm 18.0 12.9 0.6 31 7.7 SSW 17 24 9 13 1020.6 1020.6 0.0
17/04:30pm 18.3 11.9 0.9 31 7.7 SSW 24 35 13 19 1020.2 1020.2 0.0
17/04:00pm 17.5 11.2 1.5 34 7.1 SW 24 35 13 19 1019.9 1019.9 0.0
17/03:30pm 17.7 11.6 2.5 36 6.9 SSW 24 33 13 18 1019.7 1019.7 0.0
17/03:00pm 18.0 12.6 2.7 36 7.0 SSW 20 26 11 14 1019.8 1019.8 0.0
17/02:30pm 17.5 10.7 3.0 38 6.7 SW 28 41 15 22 1019.8 1019.8 0.0
17/02:00pm 19.0 12.7 1.5 31 7.9 SW 24 43 13 23 1019.6 1019.6 0.0
17/01:30pm 18.2 12.1 2.5 35 7.2 SW 24 35 13 19 1020.0 1020.0 0.0
17/01:00pm 17.6 10.9 3.5 39 6.6 SW 28 43 15 23 1019.9 1019.9 0.0
17/12:30pm 17.0 10.7 1.8 36 6.8 SSW 24 33 13 18 1020.2 1020.2 0.0
17/12:00pm 15.9 10.8 4.0 45 5.5 SSW 20 35 11 19 1020.4 1020.4 0.0
17/11:30am 16.8 11.8 4.5 44 5.8 SSW 20 28 11 15 1020.6 1020.6 0.0
17/11:00am 15.8 10.9 4.2 46 5.4 SSW 19 28 10 15 1020.7 1020.7 0.0
17/10:30am 16.4 11.4 4.4 45 5.6 SSW 20 28 11 15 1021.0 1021.0 0.0
17/10:00am 16.2 11.2 4.6 46 5.5 SSW 20 28 11 15 1021.0 1021.0 0.0
17/09:30am 15.4 10.6 5.6 52 4.7 SW 20 33 11 18 1021.1 1021.1 0.0
17/09:00am 14.6 10.0 5.7 55 4.2 SW 19 28 10 15 1021.0 1021.0 -
17/08:30am 13.4 7.8 5.6 59 3.7 SW 24 30 13 16 1020.9 1020.9 -
17/08:00am 12.8 7.6 5.7 62 3.3 WSW 22 30 12 16 1020.7 1020.7 -
17/07:30am 11.5 7.3 5.6 67 2.7 WSW 17 24 9 13 1020.3 1020.3 -
17/07:00am 8.7 6.1 6.3 85 1.1 W 9 13 5 7 1019.9 1019.9 -
17/06:30am 7.1 4.1 6.2 94 0.4 W 11 13 6 7 1019.5 1019.5 -
17/06:00am 7.5 4.5 6.1 91 0.6 WSW 11 15 6 8 1019.2 1019.1 -
17/05:30am 6.9 3.7 6.9 100 0.0 WSW 13 13 7 7 1018.9 1018.8 -
17/05:00am 5.5 2.8 5.5 100 0.0 WSW 9 11 5 6 1018.9 1018.8 -
17/04:30am 5.4 3.0 5.4 100 0.0 WNW 7 9 4 5 1018.5 1018.4 -
17/04:00am 6.1 5.2 6.1 100 0.0 CALM 0 4 0 2 1018.4 1018.3 -
17/03:30am 6.3 3.7 6.3 100 0.0 W 9 11 5 6 1018.2 1018.1 -
17/03:00am 6.8 3.9 6.5 98 0.1 W 11 13 6 7 1018.1 1018.0 0.0
17/02:30am 7.7 4.6 7.1 96 0.3 W 13 13 7 7 1018.2 1018.1 -
17/02:00am 8.0 5.5 8.0 100 0.0 W 11 13 6 7 1018.6 1018.5 -
17/01:30am 8.0 5.8 8.0 100 0.0 WSW 9 11 5 6 1018.6 1018.5 -
17/01:00am 8.6 6.4 8.0 96 0.3 SW 9 11 5 6 1018.6 1018.5 -
17/12:30am 9.3 7.1 7.7 90 0.8 WSW 9 11 5 6 1018.7 1018.6 -
17/12:00am 10.6 8.1 8.0 84 1.3 WSW 11 13 6 7 1018.7 1018.6 -
 
Date/Time
CST
Temp
°C
App
Temp
°C
Dew
Point
Rel
Hum
%
Delta-T
°C
Wind Press
QNH
hPa
Press
MSL
hPa
Rain
since 9 am
mm
Dir
 
Spd
km/h
Gust
km/h
Spd
kts
Gust
kts
16/11:30pm 11.5 8.6 8.2 80 1.6 SW 13 17 7 9 1018.8 1018.7 -
16/11:00pm 11.7 8.3 7.8 77 1.9 SW 15 20 8 11 1018.7 1018.6 -
16/10:30pm 12.4 9.0 7.5 72 2.4 SW 15 22 8 12 1018.4 1018.3 -
16/10:00pm 12.9 9.8 7.4 69 2.7 SW 13 20 7 11 1018.2 1018.1 -
16/09:30pm 13.3 8.9 6.6 64 3.2 SSW 19 26 10 14 1018.1 1018.0 -
16/09:00pm 13.6 10.0 5.0 56 4.0 SW 13 19 7 10 1017.9 1017.8 0.0
16/08:30pm 13.9 10.5 4.2 52 4.4 SW 11 17 6 9 1017.5 1017.4 -
16/08:00pm 14.5 11.3 3.0 46 5.2 SW 9 13 5 7 1017.2 1017.1 -
16/07:30pm 15.3 11.3 3.1 44 5.5 SW 13 20 7 11 1016.9 1016.8 -
16/07:00pm 15.5 11.3 1.6 39 6.1 WSW 13 22 7 12 1016.3 1016.2 -
16/06:30pm 16.0 11.3 0.6 35 6.6 WSW 15 20 8 11 1016.0 1015.9 -
16/06:00pm 16.8 11.2 0.0 32 7.2 WSW 19 28 10 15 1015.6 1015.5 -
16/05:30pm 18.1 12.4 0.3 30 7.8 WSW 20 28 11 15 1015.2 1015.2 -
16/05:00pm 18.9 12.9 1.0 30 8.0 SW 22 35 12 19 1014.8 1014.8 -
16/04:30pm 19.5 13.3 -0.5 26 8.7 SW 22 33 12 18 1014.5 1014.5 -
16/04:00pm 20.3 13.7 -0.3 25 9.1 SW 24 35 13 19 1014.5 1014.5 -
16/03:30pm 19.6 13.0 -0.4 26 8.7 SW 24 35 13 19 1014.5 1014.5 -
16/03:00pm 19.1 13.2 2.0 32 7.8 SW 22 30 12 16 1014.6 1014.6 -
16/02:00pm 21.0 14.0 1.8 28 8.9 W 28 43 15 23 1014.8 1014.8 0.0
16/01:30pm 19.8 13.7 2.6 32 8.0 SW 24 39 13 21 1015.1 1015.1 0.0

Other Formats:

Comma delimited format used in spreadsheet applications
http://www.bom.gov.au/fwo/IDS60801/IDS60801.95687.axf

JavaScript Object Notation format (JSON) in row-major order
http://www.bom.gov.au/fwo/IDS60801/IDS60801.95687.json